createdAt,value
2023-05-01T00:02:22.270Z,16.29
2023-05-01T00:04:52.826Z,16.29
2023-05-01T00:07:23.681Z,16.29
2023-05-01T00:09:54.672Z,16.29
2023-05-01T00:12:25.780Z,16.29
2023-05-01T00:14:59.058Z,16.28
2023-05-01T00:17:29.779Z,16.29
2023-05-01T00:20:00.809Z,16.30
2023-05-01T00:22:32.014Z,16.31
2023-05-01T00:25:02.440Z,16.31
2023-05-01T00:27:32.594Z,16.30
2023-05-01T00:30:03.273Z,16.31
2023-05-01T00:32:33.709Z,16.31
2023-05-01T00:35:05.161Z,16.32
2023-05-01T00:37:36.149Z,16.32
2023-05-01T00:40:07.620Z,16.33
2023-05-01T00:42:41.493Z,16.32
2023-05-01T00:45:12.638Z,16.32
2023-05-01T00:47:43.080Z,16.32
2023-05-01T00:50:13.981Z,16.34
2023-05-01T00:52:44.599Z,16.33
2023-05-01T00:55:15.254Z,16.33
2023-05-01T00:57:46.583Z,16.34
2023-05-01T01:00:19.052Z,16.35
2023-05-01T01:02:49.813Z,16.34
2023-05-01T01:05:23.908Z,16.35
2023-05-01T01:08:35.628Z,16.35
2023-05-01T01:11:43.463Z,16.36
2023-05-01T01:14:42.237Z,16.36
2023-05-01T01:17:37.014Z,16.36
2023-05-01T01:20:20.482Z,16.36
2023-05-01T01:23:03.468Z,16.36
2023-05-01T01:25:53.632Z,16.37
2023-05-01T01:29:24.712Z,16.37
2023-05-01T01:32:13.495Z,16.38
2023-05-01T01:34:57.874Z,16.38
2023-05-01T01:37:53.584Z,16.38
2023-05-01T01:40:29.849Z,16.39
2023-05-01T01:43:12.626Z,16.38
2023-05-01T01:45:48.799Z,16.40
2023-05-01T01:48:28.376Z,16.38
2023-05-01T01:51:01.225Z,16.41
2023-05-01T01:53:33.228Z,16.42
2023-05-01T01:56:07.842Z,16.42
2023-05-01T01:58:41.854Z,16.44
2023-05-01T02:01:12.607Z,16.46
2023-05-01T02:03:46.246Z,16.46
2023-05-01T02:06:19.653Z,16.49
2023-05-01T02:08:51.943Z,16.49
2023-05-01T02:11:25.295Z,16.53
2023-05-01T02:13:57.497Z,16.53
2023-05-01T02:16:29.498Z,16.52
2023-05-01T02:19:05.413Z,16.52
2023-05-01T02:21:38.989Z,16.51
2023-05-01T02:24:11.957Z,16.50
2023-05-01T02:26:51.646Z,16.50
2023-05-01T02:29:21.996Z,16.51
2023-05-01T02:31:52.777Z,16.51
2023-05-01T02:34:23.847Z,16.50
2023-05-01T02:36:54.359Z,16.51
2023-05-01T02:39:25.921Z,16.51
2023-05-01T02:41:59.989Z,16.51
2023-05-01T02:44:32.102Z,16.51
2023-05-01T02:47:04.561Z,16.51
2023-05-01T02:49:37.192Z,16.50
2023-05-01T02:52:09.408Z,16.51
2023-05-01T02:54:40.902Z,16.52
2023-05-01T02:57:13.167Z,16.51
2023-05-01T02:59:43.647Z,16.51
2023-05-01T03:02:14.951Z,16.51
2023-05-01T03:04:46.045Z,16.52
2023-05-01T03:07:16.472Z,16.52
2023-05-01T03:09:47.399Z,16.53
2023-05-01T03:12:17.908Z,16.52
2023-05-01T03:14:48.306Z,16.54
2023-05-01T03:17:18.964Z,16.54
2023-05-01T03:19:51.084Z,16.55
2023-05-01T03:22:21.705Z,16.55
2023-05-01T03:24:53.505Z,16.56
2023-05-01T03:27:24.704Z,16.55
2023-05-01T03:29:57.794Z,16.56
2023-05-01T03:32:30.875Z,16.56
2023-05-01T03:35:01.478Z,16.55
2023-05-01T03:37:32.700Z,16.57
2023-05-01T03:40:03.193Z,16.57
2023-05-01T03:42:51.701Z,16.57
2023-05-01T03:45:26.152Z,16.58
2023-05-01T03:47:56.777Z,16.58
2023-05-01T03:50:27.530Z,16.59
2023-05-01T03:52:59.070Z,16.58
2023-05-01T03:55:29.498Z,16.60
2023-05-01T03:58:00.208Z,16.61
2023-05-01T04:00:31.093Z,16.62
2023-05-01T04:03:02.023Z,16.63
2023-05-01T04:05:36.110Z,16.64
2023-05-01T04:08:06.796Z,16.65
2023-05-01T04:10:37.650Z,16.66
2023-05-01T04:13:08.531Z,16.67
2023-05-01T04:15:39.090Z,16.68
2023-05-01T04:18:09.671Z,16.70
2023-05-01T04:20:41.777Z,16.71
2023-05-01T04:23:12.350Z,16.72
2023-05-01T04:25:42.884Z,16.72
2023-05-01T04:28:17.196Z,16.73
2023-05-01T04:30:48.065Z,16.73
2023-05-01T04:33:18.528Z,16.74
2023-05-01T04:35:49.066Z,16.75
2023-05-01T04:38:19.813Z,16.75
2023-05-01T04:40:51.777Z,16.75
2023-05-01T04:43:22.204Z,16.76
2023-05-01T04:45:52.688Z,16.76
2023-05-01T04:48:23.208Z,16.77
2023-05-01T04:50:53.730Z,16.77
2023-05-01T04:53:25.060Z,16.79
2023-05-01T04:55:55.583Z,16.80
2023-05-01T04:58:25.989Z,16.78
2023-05-01T05:01:02.335Z,16.80
2023-05-01T05:03:32.915Z,16.80
2023-05-01T05:06:03.694Z,16.81
2023-05-01T05:08:34.244Z,16.83
2023-05-01T05:11:12.462Z,16.85
2023-05-01T05:14:02.878Z,16.86
2023-05-01T05:16:33.293Z,16.87
2023-05-01T05:19:04.147Z,16.90
2023-05-01T05:21:39.236Z,16.91
2023-05-01T05:24:09.679Z,16.92
2023-05-01T05:26:40.768Z,16.93
2023-05-01T05:29:11.177Z,16.95
2023-05-01T05:31:41.553Z,16.97
2023-05-01T05:34:12.933Z,16.97
2023-05-01T05:36:43.333Z,16.99
2023-05-01T05:39:14.774Z,17.00
2023-05-01T05:41:45.214Z,17.02
2023-05-01T05:44:15.915Z,17.03
2023-05-01T05:46:46.568Z,17.05
2023-05-01T05:49:23.255Z,17.08
2023-05-01T05:51:53.751Z,17.10
2023-05-01T05:54:24.340Z,17.12
2023-05-01T05:56:54.743Z,17.15
2023-05-01T05:59:25.130Z,17.14
2023-05-01T06:01:55.704Z,17.15
2023-05-01T06:04:26.132Z,17.13
2023-05-01T06:06:57.089Z,17.15
2023-05-01T06:09:27.877Z,17.18
2023-05-01T06:11:58.637Z,17.19
2023-05-01T06:14:29.841Z,17.19
2023-05-01T06:17:00.353Z,17.22
2023-05-01T06:19:30.660Z,17.23
2023-05-01T06:22:09.301Z,17.22
2023-05-01T06:24:46.107Z,17.24
2023-05-01T06:27:16.812Z,17.25
2023-05-01T06:29:47.706Z,17.26
2023-05-01T06:32:18.214Z,17.27
2023-05-01T06:34:49.768Z,17.28
2023-05-01T06:37:20.693Z,17.27
2023-05-01T06:39:52.177Z,17.28
2023-05-01T06:42:23.085Z,17.29
2023-05-01T06:44:53.648Z,17.31
2023-05-01T06:47:24.870Z,17.31
2023-05-01T06:49:55.868Z,17.31
2023-05-01T06:52:26.680Z,17.33
2023-05-01T06:54:57.178Z,17.34
2023-05-01T06:57:27.827Z,17.36
2023-05-01T06:59:58.705Z,17.37
2023-05-01T07:02:29.436Z,17.37
2023-05-01T07:04:59.819Z,17.38
2023-05-01T07:07:32.450Z,17.39
2023-05-01T07:10:02.807Z,17.40
2023-05-01T07:12:33.060Z,17.41
2023-05-01T07:15:03.492Z,17.41
2023-05-01T07:17:34.729Z,17.46
2023-05-01T07:20:06.617Z,17.46
2023-05-01T07:22:37.125Z,17.46
2023-05-01T07:25:08.069Z,17.48
2023-05-01T07:27:38.409Z,17.48
2023-05-01T07:30:09.476Z,17.50
2023-05-01T07:32:40.588Z,17.52
2023-05-01T07:35:11.369Z,17.53
2023-05-01T07:37:41.985Z,17.53
2023-05-01T07:40:12.990Z,17.55
2023-05-01T07:42:43.377Z,17.56
2023-05-01T07:45:13.916Z,17.56
2023-05-01T07:47:44.986Z,17.64
2023-05-01T07:50:15.747Z,17.63
2023-05-01T07:52:46.996Z,17.61
2023-05-01T07:55:17.505Z,17.65
2023-05-01T07:57:48.028Z,17.64
2023-05-01T08:00:19.418Z,17.65
2023-05-01T08:02:50.765Z,17.65
2023-05-01T08:05:21.347Z,17.67
2023-05-01T08:07:51.734Z,17.66
2023-05-01T08:10:22.210Z,17.68
2023-05-01T08:12:52.592Z,17.68
2023-05-01T08:15:23.282Z,17.72
2023-05-01T08:17:53.803Z,17.70
2023-05-01T08:20:24.546Z,17.72
2023-05-01T08:22:54.918Z,17.73
2023-05-01T08:25:26.143Z,17.72
2023-05-01T08:27:56.591Z,17.73
2023-05-01T08:30:27.809Z,17.73
2023-05-01T08:32:58.888Z,17.73
2023-05-01T08:35:29.358Z,17.71
2023-05-01T08:37:59.895Z,17.72
2023-05-01T08:40:33.458Z,17.74
2023-05-01T08:43:04.351Z,17.73
2023-05-01T08:45:39.184Z,17.72
2023-05-01T08:48:11.918Z,17.73
2023-05-01T08:50:47.512Z,17.74
2023-05-01T08:53:24.213Z,17.73
2023-05-01T08:55:58.153Z,17.74
2023-05-01T08:58:30.784Z,17.73
2023-05-01T09:01:02.736Z,17.73
2023-05-01T09:03:35.078Z,17.74
2023-05-01T09:06:06.538Z,17.74
2023-05-01T09:08:37.029Z,17.75
2023-05-01T09:11:08.020Z,17.76
2023-05-01T09:13:38.601Z,17.75
2023-05-01T09:16:10.451Z,17.74
2023-05-01T09:18:44.967Z,17.76
2023-05-01T09:21:16.027Z,17.77
2023-05-01T09:23:46.495Z,17.76
2023-05-01T09:26:17.399Z,17.76
2023-05-01T09:28:53.298Z,17.77
2023-05-01T09:31:24.478Z,17.77
2023-05-01T09:34:02.805Z,17.76
2023-05-01T09:36:35.110Z,17.76
2023-05-01T09:39:06.367Z,17.77
2023-05-01T09:41:37.429Z,17.76
2023-05-01T09:44:08.033Z,17.77
2023-05-01T09:46:45.433Z,17.77
2023-05-01T09:49:15.840Z,17.77
2023-05-01T09:51:47.341Z,17.78
2023-05-01T09:54:22.376Z,17.77
2023-05-01T09:56:52.941Z,17.76
2023-05-01T09:59:23.588Z,17.77
2023-05-01T10:01:55.127Z,17.78
2023-05-01T10:04:36.254Z,17.78
2023-05-01T10:07:16.890Z,17.78
2023-05-01T10:09:47.908Z,17.78
2023-05-01T10:12:28.175Z,17.78
2023-05-01T10:15:03.434Z,17.78
2023-05-01T10:17:40.103Z,17.78
2023-05-01T10:20:17.045Z,17.78
2023-05-01T10:22:48.056Z,17.77
2023-05-01T10:25:19.609Z,17.77
2023-05-01T10:27:51.278Z,17.78
2023-05-01T10:30:23.421Z,17.78
2023-05-01T10:32:54.582Z,17.78
2023-05-01T10:35:39.790Z,17.77
2023-05-01T10:38:25.695Z,17.77
2023-05-01T10:40:56.199Z,17.76
2023-05-01T10:43:31.560Z,17.77
2023-05-01T10:46:11.020Z,17.78
2023-05-01T10:48:41.667Z,17.78
2023-05-01T10:51:13.002Z,17.76
2023-05-01T10:53:47.866Z,17.76
2023-05-01T10:56:28.568Z,17.77
2023-05-01T10:59:01.472Z,17.78
2023-05-01T11:01:47.212Z,17.77
2023-05-01T11:04:29.418Z,17.77
2023-05-01T11:07:12.684Z,17.78
2023-05-01T11:09:44.076Z,17.76
2023-05-01T11:12:16.455Z,17.77
2023-05-01T11:14:59.445Z,17.77
2023-05-01T11:17:48.637Z,17.77
2023-05-01T11:20:28.204Z,17.77
2023-05-01T11:22:59.971Z,17.76
2023-05-01T11:25:35.341Z,17.76
2023-05-01T11:28:08.167Z,17.76
2023-05-01T11:30:44.734Z,17.75
2023-05-01T11:33:16.342Z,17.75
2023-05-01T11:35:48.061Z,17.76
2023-05-01T11:38:22.759Z,17.75
2023-05-01T11:41:04.975Z,17.75
2023-05-01T11:43:35.413Z,17.74
2023-05-01T11:46:05.828Z,17.74
2023-05-01T11:48:36.524Z,17.74
2023-05-01T11:51:15.577Z,17.73
2023-05-01T11:53:46.268Z,17.73
2023-05-01T11:56:27.111Z,17.74
2023-05-01T11:58:59.365Z,17.73
2023-05-01T12:01:39.826Z,17.73
2023-05-01T12:04:10.949Z,17.74
2023-05-01T12:06:47.374Z,17.73
2023-05-01T12:09:26.376Z,17.72
2023-05-01T12:11:57.328Z,17.73
2023-05-01T12:14:27.703Z,17.73
2023-05-01T12:16:58.613Z,17.73
2023-05-01T12:19:29.113Z,17.73
2023-05-01T12:22:09.646Z,17.72
2023-05-01T12:24:40.272Z,17.72
2023-05-01T12:27:10.795Z,17.73
2023-05-01T12:29:46.272Z,17.71
2023-05-01T12:32:18.439Z,17.71
2023-05-01T12:34:49.855Z,17.72
2023-05-01T12:37:20.321Z,17.72
2023-05-01T12:39:51.043Z,17.72
2023-05-01T12:42:21.572Z,17.70
2023-05-01T12:45:02.697Z,17.69
2023-05-01T12:47:39.453Z,17.70
2023-05-01T12:50:11.594Z,17.70
2023-05-01T12:52:42.172Z,17.69
2023-05-01T12:55:14.270Z,17.68
2023-05-01T12:57:57.032Z,17.68
2023-05-01T13:00:27.515Z,17.68
2023-05-01T13:03:04.926Z,17.67
2023-05-01T13:05:35.461Z,17.65
2023-05-01T13:08:06.468Z,17.66
2023-05-01T13:10:37.062Z,17.65
2023-05-01T13:13:07.482Z,17.66
2023-05-01T13:15:39.067Z,17.66
2023-05-01T13:18:10.329Z,17.66
2023-05-01T13:20:41.101Z,17.66
2023-05-01T13:23:15.056Z,17.66
2023-05-01T13:25:47.860Z,17.65
2023-05-01T13:28:22.352Z,17.65
2023-05-01T13:30:52.902Z,17.65
2023-05-01T13:33:23.756Z,17.65
2023-05-01T13:35:54.117Z,17.65
2023-05-01T13:38:26.522Z,17.65
2023-05-01T13:40:57.335Z,17.64
2023-05-01T13:43:27.779Z,17.64
2023-05-01T13:46:01.811Z,17.64
2023-05-01T13:48:33.612Z,17.63
2023-05-01T13:51:03.958Z,17.63
2023-05-01T13:53:34.506Z,17.63
2023-05-01T13:56:23.201Z,17.63
2023-05-01T13:58:53.579Z,17.62
2023-05-01T14:01:24.898Z,17.62
2023-05-01T14:04:01.941Z,17.61
2023-05-01T14:06:32.474Z,17.60
2023-05-01T14:09:02.878Z,17.61
2023-05-01T14:11:33.691Z,17.61
2023-05-01T14:14:05.636Z,17.61
2023-05-01T14:16:36.388Z,17.61
2023-05-01T14:19:07.398Z,17.60
2023-05-01T14:21:44.066Z,17.59
2023-05-01T14:24:15.393Z,17.60
2023-05-01T14:26:47.693Z,17.58
2023-05-01T14:29:29.645Z,17.59
2023-05-01T14:32:05.737Z,17.58
2023-05-01T14:34:36.994Z,17.58
2023-05-01T14:37:07.624Z,17.58
2023-05-01T14:39:38.414Z,17.57
2023-05-01T14:42:08.837Z,17.57
2023-05-01T14:44:44.235Z,17.56
2023-05-01T14:47:23.214Z,17.56
2023-05-01T14:49:57.495Z,17.55
2023-05-01T14:52:27.842Z,17.55
2023-05-01T14:54:58.556Z,17.55
2023-05-01T14:57:29.313Z,17.54
2023-05-01T14:59:59.935Z,17.55
2023-05-01T15:02:31.786Z,17.54
2023-05-01T15:05:03.135Z,17.54
2023-05-01T15:07:33.714Z,17.54
2023-05-01T15:10:04.555Z,17.53
2023-05-01T15:12:35.100Z,17.53
2023-05-01T15:15:05.635Z,17.52
2023-05-01T15:17:36.265Z,17.52
2023-05-01T15:20:07.625Z,17.51
2023-05-01T15:22:39.598Z,17.51
2023-05-01T15:25:14.964Z,17.51
2023-05-01T15:27:46.050Z,17.50
2023-05-01T15:30:18.016Z,17.49
2023-05-01T15:32:48.822Z,17.50
2023-05-01T15:35:19.846Z,17.50
2023-05-01T15:37:51.184Z,17.49
2023-05-01T15:40:22.604Z,17.50
2023-05-01T15:42:53.214Z,17.49
2023-05-01T15:45:23.766Z,17.48
2023-05-01T15:47:54.234Z,17.47
2023-05-01T15:50:28.505Z,17.46
2023-05-01T15:52:59.570Z,17.46
2023-05-01T15:55:29.890Z,17.45
2023-05-01T15:58:00.233Z,17.45
2023-05-01T16:00:30.817Z,17.44
2023-05-01T16:03:05.777Z,17.43
2023-05-01T16:05:40.301Z,17.43
2023-05-01T16:08:10.808Z,17.43
2023-05-01T16:10:42.145Z,17.43
2023-05-01T16:13:12.921Z,17.41
2023-05-01T16:15:44.372Z,17.42
2023-05-01T16:18:22.277Z,17.40
2023-05-01T16:20:56.708Z,17.41
2023-05-01T16:23:28.265Z,17.40
2023-05-01T16:25:58.818Z,17.39
2023-05-01T16:28:30.184Z,17.39
2023-05-01T16:31:00.481Z,17.38
2023-05-01T16:33:31.353Z,17.38
2023-05-01T16:36:01.833Z,17.38
2023-05-01T16:38:33.262Z,17.37
2023-05-01T16:41:03.828Z,17.37
2023-05-01T16:43:34.277Z,17.37
2023-05-01T16:46:05.848Z,17.35
2023-05-01T16:48:37.860Z,17.35
2023-05-01T16:51:09.906Z,17.34
2023-05-01T16:53:40.417Z,17.33
2023-05-01T16:56:11.747Z,17.33
2023-05-01T16:58:41.989Z,17.33
2023-05-01T17:01:12.555Z,17.31
2023-05-01T17:03:43.032Z,17.32
2023-05-01T17:06:13.458Z,17.31
2023-05-01T17:08:45.800Z,17.31
2023-05-01T17:11:17.055Z,17.30
2023-05-01T17:13:47.440Z,17.30
2023-05-01T17:16:18.180Z,17.28
2023-05-01T17:18:48.764Z,17.29
2023-05-01T17:21:20.041Z,17.28
2023-05-01T17:23:50.408Z,17.28
2023-05-01T17:26:20.787Z,17.27
2023-05-01T17:28:52.050Z,17.27
2023-05-01T17:31:23.120Z,17.27
2023-05-01T17:33:53.726Z,17.25
2023-05-01T17:36:25.386Z,17.25
2023-05-01T17:38:56.260Z,17.24
2023-05-01T17:41:26.846Z,17.23
2023-05-01T17:43:57.271Z,17.23
2023-05-01T17:46:28.084Z,17.22
2023-05-01T17:48:58.901Z,17.23
2023-05-01T17:51:30.191Z,17.22
2023-05-01T17:54:00.823Z,17.22
2023-05-01T17:56:31.382Z,17.19
2023-05-01T17:59:01.801Z,17.19
2023-05-01T18:01:32.187Z,17.18
2023-05-01T18:04:02.820Z,17.17
2023-05-01T18:06:33.593Z,17.17
2023-05-01T18:09:05.034Z,17.16
2023-05-01T18:11:36.243Z,17.16
2023-05-01T18:14:06.673Z,17.16
2023-05-01T18:16:36.918Z,17.15
2023-05-01T18:19:07.534Z,17.15
2023-05-01T18:21:37.871Z,17.14
2023-05-01T18:24:08.339Z,17.13
2023-05-01T18:26:38.703Z,17.13
2023-05-01T18:29:09.466Z,17.12
2023-05-01T18:31:40.481Z,17.12
2023-05-01T18:34:11.778Z,17.11
2023-05-01T18:36:42.236Z,17.11
2023-05-01T18:39:13.078Z,17.09
2023-05-01T18:41:43.404Z,17.10
2023-05-01T18:44:14.179Z,17.09
2023-05-01T18:46:44.452Z,17.08
2023-05-01T18:49:14.912Z,17.07
2023-05-01T18:51:45.324Z,17.07
2023-05-01T18:54:16.158Z,17.07
2023-05-01T18:56:46.706Z,17.07
2023-05-01T18:59:18.624Z,17.06
2023-05-01T19:01:49.553Z,17.05
2023-05-01T19:04:21.188Z,17.03
2023-05-01T19:06:51.670Z,17.03
2023-05-01T19:09:22.155Z,17.03
2023-05-01T19:11:52.854Z,17.02
2023-05-01T19:14:24.101Z,17.00
2023-05-01T19:16:55.318Z,17.00
2023-05-01T19:19:25.747Z,17.00
2023-05-01T19:21:56.108Z,16.99
2023-05-01T19:24:26.427Z,16.99
2023-05-01T19:26:57.073Z,16.99
2023-05-01T19:29:27.502Z,16.98
2023-05-01T19:31:57.861Z,16.97
2023-05-01T19:34:28.988Z,16.97
2023-05-01T19:37:01.683Z,16.96
2023-05-01T19:39:32.374Z,16.95
2023-05-01T19:42:03.628Z,16.94
2023-05-01T19:44:34.162Z,16.94
2023-05-01T19:47:05.268Z,16.93
2023-05-01T19:49:36.207Z,16.93
2023-05-01T19:52:07.848Z,16.92
2023-05-01T19:54:38.054Z,16.91
2023-05-01T19:57:08.425Z,16.90
2023-05-01T19:59:40.459Z,16.89
2023-05-01T20:02:10.935Z,16.89
2023-05-01T20:04:41.395Z,16.88
2023-05-01T20:07:12.326Z,16.87
2023-05-01T20:09:42.828Z,16.86
2023-05-01T20:12:13.572Z,16.86
2023-05-01T20:14:44.020Z,16.86
2023-05-01T20:17:14.395Z,16.84
2023-05-01T20:19:44.854Z,16.85
2023-05-01T20:22:15.252Z,16.84
2023-05-01T20:24:45.657Z,16.83
2023-05-01T20:27:17.208Z,16.83
2023-05-01T20:29:47.611Z,16.82
2023-05-01T20:32:19.329Z,16.81
2023-05-01T20:34:49.826Z,16.80
2023-05-01T20:37:20.708Z,16.80
2023-05-01T20:39:51.130Z,16.79
2023-05-01T20:42:21.565Z,16.79
2023-05-01T20:44:56.072Z,16.78
2023-05-01T20:47:28.607Z,16.78
2023-05-01T20:49:59.306Z,16.76
2023-05-01T20:52:29.735Z,16.77
2023-05-01T20:55:01.545Z,16.76
2023-05-01T20:57:32.016Z,16.76
2023-05-01T21:00:03.307Z,16.74
2023-05-01T21:02:33.974Z,16.74
2023-05-01T21:05:04.526Z,16.73
2023-05-01T21:07:38.616Z,16.73
2023-05-01T21:10:15.738Z,16.72
2023-05-01T21:12:46.106Z,16.71
2023-05-01T21:15:17.302Z,16.70
2023-05-01T21:17:47.970Z,16.69
2023-05-01T21:20:34.153Z,16.70
2023-05-01T21:23:04.763Z,16.68
2023-05-01T21:25:35.515Z,16.67
2023-05-01T21:28:07.842Z,16.66
2023-05-01T21:30:38.915Z,16.65
2023-05-01T21:33:14.273Z,16.65
2023-05-01T21:35:48.226Z,16.64
2023-05-01T21:38:18.797Z,16.63
2023-05-01T21:40:49.258Z,16.62
2023-05-01T21:43:21.814Z,16.62
2023-05-01T21:45:52.177Z,16.61
2023-05-01T21:48:22.390Z,16.62
2023-05-01T21:50:52.918Z,16.62
2023-05-01T21:53:23.339Z,16.60
2023-05-01T21:55:53.746Z,16.60
2023-05-01T21:58:24.219Z,16.60
2023-05-01T22:00:54.852Z,16.59
2023-05-01T22:03:26.248Z,16.58
2023-05-01T22:05:56.612Z,16.58
2023-05-01T22:08:27.632Z,16.58
2023-05-01T22:10:58.095Z,16.58
2023-05-01T22:13:34.720Z,16.58
2023-05-01T22:16:05.315Z,16.57
2023-05-01T22:18:36.519Z,16.58
2023-05-01T22:21:06.957Z,16.58
2023-05-01T22:23:38.290Z,16.56
2023-05-01T22:26:08.649Z,16.57
2023-05-01T22:28:39.407Z,16.57
2023-05-01T22:31:10.127Z,16.56
2023-05-01T22:33:40.826Z,16.56
2023-05-01T22:36:11.498Z,16.55
2023-05-01T22:38:42.190Z,16.55
2023-05-01T22:41:13.176Z,16.56
2023-05-01T22:43:44.348Z,16.55
2023-05-01T22:46:14.794Z,16.55
2023-05-01T22:48:45.291Z,16.56
2023-05-01T22:51:15.708Z,16.57
2023-05-01T22:53:46.096Z,16.58
2023-05-01T22:56:16.569Z,16.59
2023-05-01T22:58:47.477Z,16.61
2023-05-01T23:01:17.971Z,16.61
2023-05-01T23:03:48.679Z,16.64
2023-05-01T23:06:21.177Z,16.65
2023-05-01T23:08:57.388Z,16.66
2023-05-01T23:11:34.042Z,16.68
2023-05-01T23:14:04.607Z,16.67
2023-05-01T23:16:42.821Z,16.67
2023-05-01T23:19:22.145Z,16.69
2023-05-01T23:22:07.849Z,16.67
2023-05-01T23:24:49.765Z,16.66
2023-05-01T23:27:21.448Z,16.67
2023-05-01T23:29:58.778Z,16.67
2023-05-01T23:32:31.967Z,16.68
2023-05-01T23:35:16.166Z,16.70
2023-05-01T23:37:47.396Z,16.70
2023-05-01T23:40:18.363Z,16.70
2023-05-01T23:42:48.922Z,16.70
2023-05-01T23:45:19.578Z,16.71
2023-05-01T23:47:50.398Z,16.72
2023-05-01T23:50:20.890Z,16.72
2023-05-01T23:52:51.395Z,16.71
2023-05-01T23:55:22.349Z,16.73
2023-05-01T23:57:52.960Z,16.72
